createdAt,value
2019-01-30T00:00:25.114Z,7.75
2019-01-30T00:02:54.762Z,7.77
2019-01-30T00:05:24.470Z,7.76
2019-01-30T00:07:54.229Z,7.59
2019-01-30T00:10:23.948Z,7.74
2019-01-30T00:12:53.704Z,7.77
2019-01-30T00:15:23.589Z,7.86
2019-01-30T00:17:53.251Z,7.88
2019-01-30T00:20:22.876Z,7.76
2019-01-30T00:22:52.610Z,7.81
2019-01-30T00:25:23.943Z,7.80
2019-01-30T00:27:53.706Z,7.72
2019-01-30T00:30:24.593Z,7.79
2019-01-30T00:32:54.296Z,7.72
2019-01-30T00:35:23.918Z,7.65
2019-01-30T00:37:53.596Z,7.48
2019-01-30T00:40:23.712Z,7.41
2019-01-30T00:42:53.322Z,7.40
2019-01-30T00:45:23.256Z,7.31
2019-01-30T00:47:52.962Z,7.12
2019-01-30T00:50:23.265Z,7.00
2019-01-30T00:52:53.107Z,7.18
2019-01-30T00:55:22.858Z,6.78
2019-01-30T00:57:52.478Z,6.43
2019-01-30T01:00:22.970Z,6.23
2019-01-30T01:02:52.817Z,6.66
2019-01-30T01:05:22.721Z,6.60
2019-01-30T01:07:52.702Z,6.68
2019-01-30T01:10:22.688Z,6.84
2019-01-30T01:12:52.548Z,7.10
2019-01-30T01:15:22.210Z,7.26
2019-01-30T01:17:51.813Z,7.30
2019-01-30T01:20:21.635Z,7.28
2019-01-30T01:22:51.484Z,7.44
2019-01-30T01:25:21.216Z,7.50
2019-01-30T01:27:50.806Z,7.67
2019-01-30T01:30:25.395Z,7.78
2019-01-30T01:32:54.416Z,7.01
2019-01-30T01:35:24.112Z,6.51
2019-01-30T01:37:53.880Z,6.46
2019-01-30T01:40:23.706Z,6.31
2019-01-30T01:42:53.334Z,6.50
2019-01-30T01:45:24.264Z,6.28
2019-01-30T01:47:53.960Z,6.56
2019-01-30T01:50:23.695Z,6.50
2019-01-30T01:52:53.479Z,6.34
2019-01-30T01:55:23.091Z,6.40
2019-01-30T01:57:52.747Z,6.38
2019-01-30T02:00:23.023Z,6.52
2019-01-30T02:02:52.924Z,6.48
2019-01-30T02:05:23.362Z,6.31
2019-01-30T02:07:53.306Z,6.24
2019-01-30T02:10:23.832Z,6.57
2019-01-30T02:12:53.732Z,6.87
2019-01-30T02:15:24.091Z,6.99
2019-01-30T02:17:53.773Z,7.17
2019-01-30T02:20:28.712Z,7.39
2019-01-30T02:22:58.422Z,7.61
2019-01-30T02:25:28.126Z,7.76
2019-01-30T02:27:57.862Z,7.86
2019-01-30T02:30:29.261Z,7.87
2019-01-30T02:32:58.973Z,7.83
2019-01-30T02:35:28.633Z,8.00
2019-01-30T02:37:58.325Z,8.04
2019-01-30T02:40:27.923Z,7.98
2019-01-30T02:42:57.579Z,7.87
2019-01-30T02:45:27.515Z,8.06
2019-01-30T02:47:57.152Z,7.99
2019-01-30T02:50:26.978Z,7.98
2019-01-30T02:52:56.581Z,8.05
2019-01-30T02:55:26.177Z,8.14
2019-01-30T02:57:55.855Z,8.29
2019-01-30T03:00:30.134Z,8.40
2019-01-30T03:02:59.897Z,8.35
2019-01-30T03:05:29.915Z,8.23
2019-01-30T03:07:59.691Z,8.21
2019-01-30T03:10:29.432Z,8.25
2019-01-30T03:12:59.062Z,8.21
2019-01-30T03:15:28.787Z,8.29
2019-01-30T03:17:58.463Z,8.46
2019-01-30T03:20:28.200Z,8.53
2019-01-30T03:22:57.783Z,8.67
2019-01-30T03:25:27.622Z,8.72
2019-01-30T03:27:57.212Z,8.79
2019-01-30T03:30:28.832Z,8.81
2019-01-30T03:32:59.667Z,8.85
2019-01-30T03:35:29.476Z,8.40
2019-01-30T03:37:59.061Z,8.38
2019-01-30T03:40:28.794Z,7.94
2019-01-30T03:42:58.425Z,8.09
2019-01-30T03:45:28.228Z,8.27
2019-01-30T03:47:57.968Z,8.29
2019-01-30T03:50:27.584Z,8.31
2019-01-30T03:52:57.186Z,8.12
2019-01-30T03:55:26.952Z,8.08
2019-01-30T03:57:56.552Z,8.04
2019-01-30T04:00:26.896Z,8.06
2019-01-30T04:02:56.678Z,8.00
2019-01-30T04:05:26.298Z,8.16
2019-01-30T04:07:56.029Z,8.43
2019-01-30T04:10:25.893Z,8.41
2019-01-30T04:12:55.475Z,8.41
2019-01-30T04:15:25.092Z,8.27
2019-01-30T04:17:54.777Z,8.06
2019-01-30T04:20:24.690Z,8.12
2019-01-30T04:22:54.335Z,8.20
2019-01-30T04:25:24.060Z,8.30
2019-01-30T04:27:53.687Z,8.38
2019-01-30T04:30:24.641Z,8.60
2019-01-30T04:32:54.598Z,8.60
2019-01-30T04:35:24.297Z,8.23
2019-01-30T04:37:53.872Z,8.38
2019-01-30T04:40:23.735Z,8.60
2019-01-30T04:42:53.438Z,8.59
2019-01-30T04:45:24.564Z,8.60
2019-01-30T04:47:54.262Z,8.67
2019-01-30T04:50:23.955Z,8.67
2019-01-30T04:52:53.580Z,8.69
2019-01-30T04:55:23.219Z,8.78
2019-01-30T04:57:52.824Z,8.73
2019-01-30T05:00:24.179Z,8.70
2019-01-30T05:02:54.114Z,8.54
2019-01-30T05:05:23.716Z,8.23
2019-01-30T05:07:53.420Z,8.17
2019-01-30T05:10:23.089Z,8.88
2019-01-30T05:12:52.718Z,9.13
2019-01-30T05:15:23.303Z,9.09
2019-01-30T05:17:52.986Z,8.62
2019-01-30T05:20:22.739Z,9.12
2019-01-30T05:22:52.448Z,8.69
2019-01-30T05:25:22.248Z,9.01
2019-01-30T05:27:51.854Z,8.79
2019-01-30T05:30:28.156Z,8.69
2019-01-30T05:32:57.772Z,8.99
2019-01-30T05:35:27.465Z,9.01
2019-01-30T05:37:57.429Z,8.94
2019-01-30T05:40:27.026Z,8.81
2019-01-30T05:42:56.649Z,8.77
2019-01-30T05:45:26.298Z,8.83
2019-01-30T05:47:55.883Z,8.96
2019-01-30T05:50:25.589Z,8.75
2019-01-30T05:52:55.446Z,8.59
2019-01-30T05:55:25.038Z,8.36
2019-01-30T05:57:54.648Z,8.28
2019-01-30T06:00:28.518Z,8.81
2019-01-30T06:02:58.105Z,9.27
2019-01-30T06:05:27.886Z,8.77
2019-01-30T06:07:57.608Z,8.59
2019-01-30T06:10:27.212Z,8.54
2019-01-30T06:12:56.808Z,8.25
2019-01-30T06:15:26.756Z,8.52
2019-01-30T06:17:56.363Z,8.08
2019-01-30T06:20:27.220Z,8.20
2019-01-30T06:22:57.345Z,8.29
2019-01-30T06:25:27.162Z,8.75
2019-01-30T06:27:56.741Z,8.67
2019-01-30T06:30:26.693Z,8.75
2019-01-30T06:32:56.397Z,8.90
2019-01-30T06:35:26.002Z,8.64
2019-01-30T06:37:55.682Z,8.66
2019-01-30T06:40:33.280Z,8.46
2019-01-30T06:43:03.033Z,8.54
2019-01-30T06:45:32.813Z,8.50
2019-01-30T06:48:02.440Z,8.70
2019-01-30T06:50:32.147Z,8.92
2019-01-30T06:53:01.721Z,9.09
2019-01-30T06:55:31.619Z,9.06
2019-01-30T06:58:01.329Z,9.35
2019-01-30T07:00:34.138Z,9.73
2019-01-30T07:03:04.871Z,9.90
2019-01-30T07:05:34.519Z,10.34
2019-01-30T07:08:04.899Z,10.57
2019-01-30T07:10:35.041Z,10.43
2019-01-30T07:13:06.926Z,10.82
2019-01-30T07:15:37.379Z,10.17
2019-01-30T07:18:07.577Z,9.59
2019-01-30T07:20:38.058Z,9.53
2019-01-30T07:23:09.101Z,9.91
2019-01-30T07:25:39.343Z,10.64
2019-01-30T07:28:09.864Z,10.55
2019-01-30T07:30:40.791Z,10.31
2019-01-30T07:33:11.462Z,10.30
2019-01-30T07:35:42.738Z,10.14
2019-01-30T07:38:13.218Z,9.90
2019-01-30T07:40:44.964Z,9.81
2019-01-30T07:43:17.659Z,9.97
2019-01-30T07:45:47.284Z,9.46
2019-01-30T07:48:17.777Z,9.96
2019-01-30T07:50:47.604Z,9.27
2019-01-30T07:53:17.367Z,9.79
2019-01-30T07:55:48.607Z,9.92
2019-01-30T07:58:18.892Z,9.79
2019-01-30T08:00:48.881Z,9.62
2019-01-30T08:03:19.361Z,9.90
2019-01-30T08:05:50.177Z,10.06
2019-01-30T08:08:20.585Z,10.10
2019-01-30T08:10:51.069Z,9.53
2019-01-30T08:13:21.339Z,10.02
2019-01-30T08:15:51.286Z,9.79
2019-01-30T08:18:21.895Z,10.21
2019-01-30T08:20:51.559Z,10.18
2019-01-30T08:23:21.432Z,10.71
2019-01-30T08:25:51.289Z,10.44
2019-01-30T08:28:21.252Z,10.05
2019-01-30T08:30:51.038Z,9.57
2019-01-30T08:33:21.619Z,9.69
2019-01-30T08:35:51.461Z,10.09
2019-01-30T08:38:21.241Z,9.76
2019-01-30T08:40:51.015Z,9.77
2019-01-30T08:43:20.687Z,10.26
2019-01-30T08:45:50.484Z,10.25
2019-01-30T08:48:20.842Z,11.05
2019-01-30T08:50:50.918Z,10.75
2019-01-30T08:53:20.945Z,10.44
2019-01-30T08:55:51.167Z,10.53
2019-01-30T08:58:20.922Z,10.87
2019-01-30T09:00:50.842Z,10.53
2019-01-30T09:03:20.600Z,10.00
2019-01-30T09:05:50.655Z,9.95
2019-01-30T09:08:20.523Z,10.22
2019-01-30T09:10:50.720Z,10.78
2019-01-30T09:13:20.649Z,10.34
2019-01-30T09:15:51.002Z,10.26
2019-01-30T09:18:22.614Z,10.38
2019-01-30T09:20:52.240Z,10.49
2019-01-30T09:23:21.921Z,11.03
2019-01-30T09:25:51.589Z,11.43
2019-01-30T09:28:21.206Z,11.56
2019-01-30T09:30:50.844Z,10.87
2019-01-30T09:33:25.915Z,10.44
2019-01-30T09:35:51.812Z,9.77
2019-01-30T09:38:21.453Z,9.91
2019-01-30T09:40:51.103Z,10.10
2019-01-30T09:43:20.708Z,9.84
2019-01-30T09:45:50.376Z,10.05
2019-01-30T09:48:20.050Z,9.98
2019-01-30T09:50:49.665Z,9.65
2019-01-30T09:53:19.331Z,10.22
2019-01-30T09:55:49.113Z,10.03
2019-01-30T09:58:18.947Z,10.34
2019-01-30T10:00:48.806Z,10.49
2019-01-30T10:03:18.552Z,10.90
2019-01-30T10:05:48.161Z,11.12
2019-01-30T10:08:17.803Z,10.53
2019-01-30T10:10:47.452Z,10.88
2019-01-30T10:13:17.097Z,11.31
2019-01-30T10:15:46.836Z,11.10
2019-01-30T10:18:16.894Z,11.26
2019-01-30T10:20:47.862Z,11.05
2019-01-30T10:23:17.502Z,11.23
2019-01-30T10:25:47.260Z,11.23
2019-01-30T10:28:17.259Z,11.70
2019-01-30T10:30:47.696Z,12.20
2019-01-30T10:33:17.353Z,11.74
2019-01-30T10:35:47.295Z,12.41
2019-01-30T10:38:17.252Z,12.18
2019-01-30T10:40:47.280Z,11.86
2019-01-30T10:43:17.363Z,12.39
2019-01-30T10:45:47.114Z,12.33
2019-01-30T10:48:17.034Z,12.17
2019-01-30T10:50:46.874Z,12.39
2019-01-30T10:53:16.742Z,11.85
2019-01-30T10:55:46.607Z,11.68
2019-01-30T10:58:18.116Z,12.21
2019-01-30T11:00:52.693Z,12.82
2019-01-30T11:03:22.534Z,12.60
2019-01-30T11:05:52.549Z,12.63
2019-01-30T11:08:22.320Z,12.41
2019-01-30T11:10:52.193Z,13.00
2019-01-30T11:13:21.944Z,13.37
2019-01-30T11:15:51.861Z,12.75
2019-01-30T11:18:21.954Z,12.48
2019-01-30T11:20:51.917Z,12.49
2019-01-30T11:23:21.684Z,12.32
2019-01-30T11:25:51.601Z,12.62
2019-01-30T11:28:21.328Z,13.01
2019-01-30T11:30:51.111Z,13.73
2019-01-30T11:33:20.826Z,13.83
2019-01-30T11:35:50.640Z,13.42
2019-01-30T11:38:20.660Z,14.14
2019-01-30T11:40:50.616Z,14.17
2019-01-30T11:43:20.542Z,14.21
2019-01-30T11:45:50.568Z,14.09
2019-01-30T11:48:20.418Z,14.58
2019-01-30T11:50:50.150Z,13.87
2019-01-30T11:53:20.050Z,14.50
2019-01-30T11:55:49.799Z,14.98
2019-01-30T11:58:19.503Z,14.78
2019-01-30T12:00:58.501Z,14.62
2019-01-30T12:03:28.314Z,14.65
2019-01-30T12:05:58.123Z,15.20
2019-01-30T12:08:28.169Z,15.05
2019-01-30T12:10:57.991Z,15.50
2019-01-30T12:13:27.938Z,15.20
2019-01-30T12:15:57.720Z,14.43
2019-01-30T12:18:27.453Z,14.70
2019-01-30T12:20:57.230Z,14.76
2019-01-30T12:23:27.137Z,14.89
2019-01-30T12:25:56.898Z,14.20
2019-01-30T12:28:26.657Z,14.59
2019-01-30T12:30:56.448Z,14.19
2019-01-30T12:33:26.210Z,14.12
2019-01-30T12:35:55.959Z,14.22
2019-01-30T12:38:25.738Z,13.85
2019-01-30T12:40:55.467Z,14.16
2019-01-30T12:43:25.193Z,14.55
2019-01-30T12:45:54.984Z,13.82
2019-01-30T12:48:24.771Z,13.60
2019-01-30T12:50:54.886Z,13.89
2019-01-30T12:53:24.743Z,14.40
2019-01-30T12:55:54.548Z,14.44
2019-01-30T12:58:24.294Z,14.44
2019-01-30T13:00:54.160Z,14.56
2019-01-30T13:03:23.931Z,13.92
2019-01-30T13:05:53.706Z,13.95
2019-01-30T13:08:23.587Z,14.27
2019-01-30T13:10:53.318Z,13.86
2019-01-30T13:13:23.037Z,13.58
2019-01-30T13:15:53.015Z,13.52
2019-01-30T13:18:22.960Z,13.46
2019-01-30T13:20:52.672Z,13.34
2019-01-30T13:23:22.572Z,13.35
2019-01-30T13:25:52.431Z,13.31
2019-01-30T13:28:22.340Z,13.98
2019-01-30T13:30:52.294Z,13.51
2019-01-30T13:33:22.267Z,13.92
2019-01-30T13:35:52.013Z,13.61
2019-01-30T13:38:21.939Z,14.06
2019-01-30T13:40:51.775Z,13.45
2019-01-30T13:43:22.129Z,13.35
2019-01-30T13:45:51.913Z,13.76
2019-01-30T13:48:22.423Z,13.88
2019-01-30T13:50:52.162Z,13.71
2019-01-30T13:53:22.247Z,13.40
2019-01-30T13:55:52.136Z,13.35
2019-01-30T13:58:24.044Z,13.13
2019-01-30T14:00:53.837Z,13.50
2019-01-30T14:03:24.172Z,13.06
2019-01-30T14:05:54.026Z,12.95
2019-01-30T14:08:24.064Z,13.27
2019-01-30T14:10:54.436Z,12.92
2019-01-30T14:13:24.160Z,13.39
2019-01-30T14:15:54.032Z,12.62
2019-01-30T14:18:23.820Z,12.76
2019-01-30T14:20:53.525Z,13.12
2019-01-30T14:23:23.357Z,13.29
2019-01-30T14:25:56.936Z,13.42
2019-01-30T14:28:27.251Z,13.53
2019-01-30T14:30:57.143Z,13.37
2019-01-30T14:33:26.928Z,13.53
2019-01-30T14:35:56.743Z,13.68
2019-01-30T14:38:26.964Z,13.56
2019-01-30T14:40:56.731Z,13.45
2019-01-30T14:43:26.471Z,13.55
2019-01-30T14:45:56.289Z,13.39
2019-01-30T14:48:25.975Z,13.45
2019-01-30T14:50:55.929Z,13.70
2019-01-30T14:53:25.706Z,14.11
2019-01-30T14:55:55.548Z,13.96
2019-01-30T14:58:25.301Z,13.18
2019-01-30T15:00:55.311Z,14.01
2019-01-30T15:03:25.021Z,14.03
2019-01-30T15:05:54.827Z,13.68
2019-01-30T15:08:24.572Z,13.38
2019-01-30T15:10:54.392Z,13.20
2019-01-30T15:13:24.187Z,13.31
2019-01-30T15:15:53.903Z,13.80
2019-01-30T15:18:23.650Z,13.70
2019-01-30T15:20:53.520Z,13.72
2019-01-30T15:23:23.232Z,13.50
2019-01-30T15:25:52.982Z,13.34
2019-01-30T15:28:22.769Z,13.20
2019-01-30T15:30:52.585Z,13.23
2019-01-30T15:33:22.306Z,13.10
2019-01-30T15:35:52.108Z,13.21
2019-01-30T15:38:21.947Z,13.02
2019-01-30T15:40:51.908Z,12.82
2019-01-30T15:43:21.986Z,12.94
2019-01-30T15:45:51.811Z,13.03
2019-01-30T15:48:21.643Z,13.26
2019-01-30T15:50:51.616Z,13.26
2019-01-30T15:53:23.126Z,13.40
2019-01-30T15:55:53.062Z,13.02
2019-01-30T15:58:22.955Z,12.70
2019-01-30T16:01:25.661Z,12.30
2019-01-30T16:03:55.523Z,12.08
2019-01-30T16:06:25.327Z,12.51
2019-01-30T16:08:55.184Z,12.21
2019-01-30T16:11:25.047Z,12.26
2019-01-30T16:13:54.884Z,12.25
2019-01-30T16:16:24.818Z,12.10
2019-01-30T16:18:54.646Z,12.14
2019-01-30T16:21:24.362Z,12.12
2019-01-30T16:23:54.105Z,12.04
2019-01-30T16:26:23.958Z,12.11
2019-01-30T16:28:53.689Z,11.98
2019-01-30T16:31:23.503Z,12.11
2019-01-30T16:33:53.376Z,12.11
2019-01-30T16:36:25.159Z,12.08
2019-01-30T16:38:54.527Z,12.02
2019-01-30T16:41:24.300Z,11.70
2019-01-30T16:43:54.151Z,11.90
2019-01-30T16:46:24.021Z,11.96
2019-01-30T16:48:53.835Z,11.87
2019-01-30T16:51:23.907Z,11.80
2019-01-30T16:53:54.205Z,11.77
2019-01-30T16:56:24.395Z,11.78
2019-01-30T16:58:54.202Z,11.84
2019-01-30T17:01:24.035Z,11.67
2019-01-30T17:03:53.821Z,11.84
2019-01-30T17:06:24.552Z,11.74
2019-01-30T17:09:51.306Z,11.45
2019-01-30T17:16:26.424Z,11.72
2019-01-30T17:19:19.712Z,11.45
2019-01-30T17:22:08.747Z,11.42
2019-01-30T17:24:58.025Z,11.52
2019-01-30T17:27:37.723Z,11.79
2019-01-30T17:30:42.473Z,11.64
2019-01-30T17:33:12.262Z,11.56
2019-01-30T17:35:42.951Z,11.74
2019-01-30T17:38:12.944Z,11.74
2019-01-30T17:40:43.548Z,11.46
2019-01-30T17:43:14.442Z,11.45
2019-01-30T17:45:44.062Z,11.97
2019-01-30T17:48:14.935Z,11.89
2019-01-30T17:50:44.710Z,11.84
2019-01-30T17:53:14.331Z,11.20
2019-01-30T17:55:43.962Z,11.43
2019-01-30T17:58:13.668Z,11.15
2019-01-30T18:00:48.356Z,11.28
2019-01-30T18:03:17.977Z,11.25
2019-01-30T18:05:47.788Z,10.98
2019-01-30T18:08:17.584Z,11.13
2019-01-30T18:10:47.199Z,10.94
2019-01-30T18:13:16.917Z,10.76
2019-01-30T18:15:46.690Z,10.76
2019-01-30T18:18:16.267Z,11.08
2019-01-30T18:20:45.983Z,11.57
2019-01-30T18:23:15.840Z,11.96
2019-01-30T18:25:45.429Z,11.88
2019-01-30T18:28:15.154Z,11.59
2019-01-30T18:30:44.816Z,11.66
2019-01-30T18:33:14.545Z,11.56
2019-01-30T18:35:44.241Z,11.21
2019-01-30T18:38:14.347Z,11.14
2019-01-30T18:40:44.023Z,11.28
2019-01-30T18:43:13.793Z,11.15
2019-01-30T18:45:43.449Z,11.21
2019-01-30T18:48:13.048Z,11.29
2019-01-30T18:50:45.611Z,11.32
2019-01-30T18:53:14.141Z,11.45
2019-01-30T18:55:43.754Z,11.38
2019-01-30T18:58:13.511Z,11.33
2019-01-30T19:00:44.415Z,11.24
2019-01-30T19:03:18.398Z,11.31
2019-01-30T19:05:48.405Z,11.41
2019-01-30T19:08:18.270Z,11.41
2019-01-30T19:10:47.928Z,11.44
2019-01-30T19:13:17.761Z,11.42
2019-01-30T19:15:47.572Z,11.37
2019-01-30T19:18:17.645Z,11.46
2019-01-30T19:20:49.100Z,11.54
2019-01-30T19:23:18.888Z,11.61
2019-01-30T19:25:48.626Z,11.52
2019-01-30T19:28:18.401Z,11.53
2019-01-30T19:30:48.083Z,11.61
2019-01-30T19:33:17.785Z,11.64
2019-01-30T19:35:47.513Z,11.63
2019-01-30T19:38:17.258Z,11.54
2019-01-30T19:40:46.889Z,11.57
2019-01-30T19:43:16.632Z,11.57
2019-01-30T19:45:46.246Z,11.59
2019-01-30T19:48:15.947Z,11.59
2019-01-30T19:50:45.648Z,11.70
2019-01-30T19:53:15.454Z,11.68
2019-01-30T19:55:45.240Z,11.57
2019-01-30T19:58:14.931Z,11.60
2019-01-30T20:00:47.093Z,11.62
2019-01-30T20:03:31.194Z,11.55
2019-01-30T20:06:00.372Z,11.61
2019-01-30T20:08:30.143Z,11.54
2019-01-30T20:10:59.920Z,11.47
2019-01-30T20:13:29.718Z,11.44
2019-01-30T20:15:59.414Z,11.51
2019-01-30T20:18:29.401Z,11.51
2019-01-30T20:20:59.061Z,11.53
2019-01-30T20:23:28.677Z,11.53
2019-01-30T20:25:58.441Z,11.44
2019-01-30T20:28:28.139Z,11.60
2019-01-30T20:30:57.811Z,11.54
2019-01-30T20:33:28.147Z,11.40
2019-01-30T20:35:57.759Z,11.43
2019-01-30T20:38:27.385Z,11.40
2019-01-30T20:40:57.039Z,11.39
2019-01-30T20:43:26.660Z,11.32
2019-01-30T20:45:56.310Z,11.36
2019-01-30T20:48:26.044Z,11.26
2019-01-30T20:50:55.671Z,11.24
2019-01-30T20:53:25.284Z,11.27
2019-01-30T20:55:54.934Z,11.40
2019-01-30T20:58:24.552Z,11.45
2019-01-30T21:00:54.214Z,11.50
2019-01-30T21:03:23.940Z,11.53
2019-01-30T21:05:53.554Z,11.52
2019-01-30T21:08:23.167Z,11.40
2019-01-30T21:10:52.854Z,11.37
2019-01-30T21:13:22.601Z,11.33
2019-01-30T21:15:52.294Z,11.29
2019-01-30T21:18:21.988Z,11.29
2019-01-30T21:20:51.617Z,11.25
2019-01-30T21:23:21.230Z,11.31
2019-01-30T21:25:50.983Z,11.26
2019-01-30T21:28:20.593Z,11.24
2019-01-30T21:30:50.203Z,11.20
2019-01-30T21:33:19.894Z,11.21
2019-01-30T21:35:49.680Z,11.20
2019-01-30T21:38:19.276Z,11.24
2019-01-30T21:40:48.945Z,11.21
2019-01-30T21:43:18.639Z,11.26
2019-01-30T21:45:48.237Z,11.22
2019-01-30T21:48:18.021Z,11.13
2019-01-30T21:50:47.623Z,11.08
2019-01-30T21:53:17.227Z,11.11
2019-01-30T21:55:46.909Z,11.02
2019-01-30T21:58:16.484Z,10.97
2019-01-30T22:00:46.151Z,11.06
2019-01-30T22:03:15.822Z,11.03
2019-01-30T22:05:45.523Z,11.09
2019-01-30T22:08:15.114Z,11.02
2019-01-30T22:10:44.951Z,10.95
2019-01-30T22:13:14.721Z,11.04
2019-01-30T22:15:44.341Z,11.04
2019-01-30T22:18:14.295Z,11.04
2019-01-30T22:20:43.965Z,10.98
2019-01-30T22:23:13.581Z,11.01
2019-01-30T22:25:43.401Z,11.05
2019-01-30T22:28:13.096Z,11.07
2019-01-30T22:30:42.686Z,11.04
2019-01-30T22:33:12.399Z,11.09
2019-01-30T22:35:41.998Z,11.06
2019-01-30T22:38:12.916Z,11.10
2019-01-30T22:40:42.704Z,11.18
2019-01-30T22:43:12.324Z,11.06
2019-01-30T22:45:41.952Z,10.92
2019-01-30T22:48:11.767Z,10.94
2019-01-30T22:50:41.404Z,10.97
2019-01-30T22:53:11.166Z,10.93
2019-01-30T22:55:40.894Z,10.87
2019-01-30T22:58:10.508Z,10.90
2019-01-30T23:01:45.072Z,10.94
2019-01-30T23:04:40.827Z,10.95
2019-01-30T23:07:24.701Z,10.97
2019-01-30T23:10:30.915Z,10.93
2019-01-30T23:13:33.353Z,10.87
2019-01-30T23:16:43.952Z,10.88
2019-01-30T23:19:53.143Z,10.93
2019-01-30T23:22:49.286Z,11.01
2019-01-30T23:25:49.602Z,10.98
2019-01-30T23:28:58.239Z,10.95
2019-01-30T23:31:58.419Z,10.99
2019-01-30T23:35:07.047Z,10.93
2019-01-30T23:38:18.322Z,10.92
2019-01-30T23:41:18.367Z,10.94
2019-01-30T23:44:05.642Z,10.97
2019-01-30T23:47:23.862Z,10.99
2019-01-30T23:50:18.002Z,10.96
2019-01-30T23:53:10.950Z,10.98
2019-01-30T23:56:07.574Z,11.09
2019-01-30T23:59:02.339Z,11.08
